createdAt,value
2018-05-18T00:01:13.199Z,95846.87
2018-05-18T00:03:41.593Z,95854.79
2018-05-18T00:06:09.842Z,95853.20
2018-05-18T00:08:38.850Z,95857.79
2018-05-18T00:11:07.102Z,95849.78
2018-05-18T00:13:36.110Z,95853.95
2018-05-18T00:16:04.353Z,95858.25
2018-05-18T00:18:33.367Z,95847.56
2018-05-18T00:21:02.394Z,95841.16
2018-05-18T00:23:30.637Z,95846.10
2018-05-18T00:25:59.636Z,95846.48
2018-05-18T00:28:27.900Z,95848.39
2018-05-18T00:30:56.941Z,95855.63
2018-05-18T00:33:25.200Z,95849.45
2018-05-18T00:35:53.459Z,95843.54
2018-05-18T00:38:22.461Z,95851.39
2018-05-18T00:40:50.706Z,95847.03
2018-05-18T00:43:19.730Z,95847.83
2018-05-18T00:45:47.986Z,95838.00
2018-05-18T00:48:16.992Z,95842.31
2018-05-18T00:50:45.234Z,95839.92
2018-05-18T00:53:14.998Z,95844.22
2018-05-18T00:55:43.241Z,95835.52
2018-05-18T00:58:12.779Z,95832.29
2018-05-18T01:00:41.013Z,95837.67
2018-05-18T01:03:10.017Z,95838.22
2018-05-18T01:05:39.058Z,95835.28
2018-05-18T01:08:07.398Z,95838.35
2018-05-18T01:10:35.643Z,95829.48
2018-05-18T01:13:03.897Z,95835.94
2018-05-18T01:15:32.142Z,95839.67
2018-05-18T01:18:00.399Z,95835.49
2018-05-18T01:20:28.653Z,95830.03
2018-05-18T01:22:56.950Z,95834.45
2018-05-18T01:25:25.198Z,95830.30
2018-05-18T01:27:54.962Z,95826.55
2018-05-18T01:30:23.204Z,95827.02
2018-05-18T01:32:51.442Z,95836.81
2018-05-18T01:35:19.702Z,95830.25
2018-05-18T01:37:47.938Z,95840.03
2018-05-18T01:40:16.181Z,95838.29
2018-05-18T01:42:44.430Z,95833.02
2018-05-18T01:45:12.669Z,95834.36
2018-05-18T01:47:40.918Z,95835.81
2018-05-18T01:50:09.944Z,95836.08
2018-05-18T01:52:38.190Z,95832.72
2018-05-18T01:55:07.234Z,95834.70
2018-05-18T01:57:35.473Z,95840.08
2018-05-18T02:00:04.474Z,95833.11
2018-05-18T02:02:32.729Z,95841.93
2018-05-18T02:05:01.738Z,95835.56
2018-05-18T02:07:30.751Z,95836.83
2018-05-18T02:09:59.018Z,95834.59
2018-05-18T02:12:27.266Z,95834.13
2018-05-18T02:14:55.521Z,95836.22
2018-05-18T02:17:23.774Z,95835.41
2018-05-18T02:19:52.019Z,95839.39
2018-05-18T02:22:21.019Z,95834.05
2018-05-18T02:24:49.274Z,95837.95
2018-05-18T02:27:18.324Z,95839.11
2018-05-18T02:29:46.590Z,95842.20
2018-05-18T02:32:14.856Z,95833.34
2018-05-18T02:34:43.094Z,95832.53
2018-05-18T02:37:12.123Z,95839.11
2018-05-18T02:39:40.359Z,95835.63
2018-05-18T02:42:09.389Z,95835.77
2018-05-18T02:44:37.634Z,95832.80
2018-05-18T02:47:06.638Z,95838.09
2018-05-18T02:49:34.893Z,95836.89
2018-05-18T02:52:03.915Z,95832.20
2018-05-18T02:54:32.153Z,95832.27
2018-05-18T02:57:01.916Z,95837.33
2018-05-18T02:59:30.158Z,95841.38
2018-05-18T03:01:59.166Z,95844.55
2018-05-18T03:04:27.421Z,95840.97
2018-05-18T03:06:56.433Z,95843.07
2018-05-18T03:09:25.444Z,95846.13
2018-05-18T03:11:53.690Z,95848.19
2018-05-18T03:14:22.713Z,95845.39
2018-05-18T03:16:50.966Z,95844.82
2018-05-18T03:19:19.214Z,95841.23
2018-05-18T03:21:48.226Z,95846.06
2018-05-18T03:24:17.248Z,95848.34
2018-05-18T03:26:45.505Z,95847.42
2018-05-18T03:29:13.766Z,95842.61
2018-05-18T03:31:42.878Z,95843.14
2018-05-18T03:34:11.125Z,95851.61
2018-05-18T03:36:41.192Z,95846.48
2018-05-18T03:39:09.434Z,95849.33
2018-05-18T03:41:38.446Z,95848.52
2018-05-18T03:44:06.703Z,95853.95
2018-05-18T03:46:35.722Z,95846.13
2018-05-18T03:49:03.979Z,95845.03
2018-05-18T03:51:32.991Z,95847.97
2018-05-18T03:54:01.255Z,95852.14
2018-05-18T03:56:30.270Z,95849.94
2018-05-18T03:58:58.825Z,95858.14
2018-05-18T04:01:45.636Z,95857.48
2018-05-18T04:04:32.698Z,95854.28
2018-05-18T04:07:18.910Z,95864.45
2018-05-18T04:09:47.167Z,95859.64
2018-05-18T04:12:15.411Z,95865.41
2018-05-18T04:14:43.667Z,95866.27
2018-05-18T04:17:12.686Z,95869.12
2018-05-18T04:19:40.917Z,95870.45
2018-05-18T04:22:09.946Z,95868.75
2018-05-18T04:24:38.197Z,95871.81
2018-05-18T04:27:07.211Z,95871.40
2018-05-18T04:29:35.497Z,95874.89
2018-05-18T04:32:03.746Z,95876.73
2018-05-18T04:34:32.759Z,95879.08
2018-05-18T04:37:01.014Z,95880.16
2018-05-18T04:39:30.030Z,95873.89
2018-05-18T04:41:58.281Z,95881.37
2018-05-18T04:44:26.742Z,95875.75
2018-05-18T04:46:56.603Z,95879.23
2018-05-18T04:49:24.848Z,95880.72
2018-05-18T04:51:54.610Z,95886.27
2018-05-18T04:54:22.849Z,95879.72
2018-05-18T04:56:51.866Z,95885.27
2018-05-18T04:59:20.119Z,95889.56
2018-05-18T05:01:49.135Z,95882.42
2018-05-18T05:04:17.389Z,95882.21
2018-05-18T05:06:46.412Z,95886.63
2018-05-18T05:09:14.688Z,95888.35
2018-05-18T05:11:42.943Z,95894.40
2018-05-18T05:14:11.185Z,95889.83
2018-05-18T05:16:39.434Z,95892.42
2018-05-18T05:19:07.692Z,95889.08
2018-05-18T05:21:35.961Z,95897.27
2018-05-18T05:24:04.201Z,95898.47
2018-05-18T05:26:33.238Z,95892.50
2018-05-18T05:29:01.487Z,95895.19
2018-05-18T05:31:30.532Z,95900.95
2018-05-18T05:33:58.765Z,95897.88
2018-05-18T05:36:27.006Z,95898.20
2018-05-18T05:38:56.173Z,95901.05
2018-05-18T05:41:24.426Z,95901.22
2018-05-18T05:43:52.653Z,95901.76
2018-05-18T05:46:21.935Z,95896.27
2018-05-18T05:48:50.180Z,95901.09
2018-05-18T05:51:18.436Z,95908.23
2018-05-18T05:53:47.527Z,95903.67
2018-05-18T05:56:16.550Z,95908.50
2018-05-18T05:58:44.797Z,95908.92
2018-05-18T06:01:13.057Z,95905.71
2018-05-18T06:03:42.063Z,95914.61
2018-05-18T06:06:11.095Z,95905.84
2018-05-18T06:08:39.334Z,95904.30
2018-05-18T06:11:08.338Z,95906.78
2018-05-18T06:13:36.629Z,95901.30
2018-05-18T06:16:05.044Z,95904.66
2018-05-18T06:18:33.290Z,95907.48
2018-05-18T06:21:01.530Z,95906.13
2018-05-18T06:23:30.547Z,95906.13
2018-05-18T06:25:59.049Z,95908.42
2018-05-18T06:28:27.292Z,95904.41
2018-05-18T06:30:55.562Z,95908.58
2018-05-18T06:33:23.822Z,95902.10
2018-05-18T06:35:52.870Z,95906.30
2018-05-18T06:38:21.128Z,95910.21
2018-05-18T06:40:49.393Z,95912.09
2018-05-18T06:43:17.670Z,95911.41
2018-05-18T06:45:45.966Z,95918.14
2018-05-18T06:48:14.251Z,95921.36
2018-05-18T06:50:42.550Z,95917.59
2018-05-18T06:53:12.346Z,95919.75
2018-05-18T06:55:40.946Z,95916.67
2018-05-18T06:58:09.222Z,95916.53
2018-05-18T07:00:38.248Z,95918.95
2018-05-18T07:03:06.876Z,95921.77
2018-05-18T07:05:35.177Z,95924.73
2018-05-18T07:08:04.972Z,95924.05
2018-05-18T07:10:33.290Z,95920.44
2018-05-18T07:13:03.078Z,95920.29
2018-05-18T07:15:31.334Z,95921.23
2018-05-18T07:17:59.640Z,95922.70
2018-05-18T07:20:27.905Z,95920.97
2018-05-18T07:22:56.220Z,95925.41
2018-05-18T07:25:25.213Z,95927.16
2018-05-18T07:27:53.494Z,95922.05
2018-05-18T07:30:22.111Z,95922.84
2018-05-18T07:32:50.408Z,95926.50
2018-05-18T07:35:18.729Z,95926.57
2018-05-18T07:37:47.035Z,95926.85
2018-05-18T07:40:15.305Z,95931.55
2018-05-18T07:42:43.599Z,95924.31
2018-05-18T07:45:11.899Z,95923.31
2018-05-18T07:47:40.930Z,95924.89
2018-05-18T07:50:09.296Z,95926.13
2018-05-18T07:52:37.509Z,95918.85
2018-05-18T07:55:05.796Z,95911.67
2018-05-18T07:57:34.173Z,95915.71
2018-05-18T08:00:02.561Z,95916.17
2018-05-18T08:02:30.833Z,95914.84
2018-05-18T08:04:59.083Z,95914.17
2018-05-18T08:07:27.390Z,95911.52
2018-05-18T08:09:55.683Z,95917.97
2018-05-18T08:12:24.718Z,95917.89
2018-05-18T08:14:52.990Z,95916.72
2018-05-18T08:17:22.033Z,95914.46
2018-05-18T08:19:50.618Z,95920.97
2018-05-18T08:22:18.967Z,95911.55
2018-05-18T08:24:47.183Z,95913.70
2018-05-18T08:27:24.130Z,95914.30
2018-05-18T08:29:52.417Z,95907.80
2018-05-18T08:32:20.701Z,95904.95
2018-05-18T08:34:48.983Z,95903.24
2018-05-18T08:37:17.255Z,95905.17
2018-05-18T08:39:45.733Z,95904.93
2018-05-18T08:42:14.026Z,95902.62
2018-05-18T08:44:43.814Z,95900.89
2018-05-18T08:47:12.123Z,95904.00
2018-05-18T08:49:41.909Z,95900.36
2018-05-18T08:52:10.182Z,95905.80
2018-05-18T08:54:38.459Z,95912.33
2018-05-18T08:57:06.831Z,95913.53
2018-05-18T08:59:35.125Z,95909.98
2018-05-18T09:02:04.928Z,95911.36
2018-05-18T09:04:33.217Z,95910.95
2018-05-18T09:07:01.515Z,95908.25
2018-05-18T09:09:30.575Z,95916.78
2018-05-18T09:11:58.862Z,95912.20
2018-05-18T09:14:27.148Z,95914.97
2018-05-18T09:16:56.230Z,95919.59
2018-05-18T09:19:24.509Z,95916.30
2018-05-18T09:21:52.798Z,95917.33
2018-05-18T09:24:21.076Z,95918.11
2018-05-18T09:26:49.345Z,95920.59
2018-05-18T09:29:19.147Z,95919.54
2018-05-18T09:31:47.442Z,95914.98
2018-05-18T09:34:16.571Z,95921.57
2018-05-18T09:36:44.865Z,95918.35
2018-05-18T09:39:13.142Z,95921.16
2018-05-18T09:41:41.437Z,95910.75
2018-05-18T09:44:09.940Z,95918.25
2018-05-18T09:46:39.727Z,95917.05
2018-05-18T09:49:08.010Z,95915.58
2018-05-18T09:51:36.293Z,95914.84
2018-05-18T09:54:04.662Z,95913.19
2018-05-18T09:56:33.676Z,95912.81
2018-05-18T09:59:03.608Z,95913.78
2018-05-18T10:01:31.876Z,95906.97
2018-05-18T10:04:00.143Z,95908.89
2018-05-18T10:06:29.957Z,95903.80
2018-05-18T10:08:58.231Z,95908.03
2018-05-18T10:11:28.027Z,95903.86
2018-05-18T10:13:56.323Z,95900.16
2018-05-18T10:16:24.604Z,95896.14
2018-05-18T10:18:52.872Z,95899.19
2018-05-18T10:21:21.164Z,95898.70
2018-05-18T10:23:50.963Z,95898.06
2018-05-18T10:26:20.004Z,95899.98
2018-05-18T10:28:48.298Z,95903.31
2018-05-18T10:31:16.680Z,95896.41
2018-05-18T10:33:44.996Z,95897.59
2018-05-18T10:36:14.035Z,95892.07
2018-05-18T10:38:42.325Z,95899.81
2018-05-18T10:41:10.712Z,95901.27
2018-05-18T10:43:39.027Z,95897.94
2018-05-18T10:46:07.289Z,95899.97
2018-05-18T10:48:36.321Z,95893.86
2018-05-18T10:51:04.600Z,95897.98
2018-05-18T10:53:32.882Z,95885.28
2018-05-18T10:56:01.188Z,95889.12
2018-05-18T10:58:29.546Z,95888.91
2018-05-18T11:00:57.756Z,95893.97
2018-05-18T11:03:26.141Z,95885.77
2018-05-18T11:05:55.205Z,95884.16
2018-05-18T11:08:23.507Z,95888.79
2018-05-18T11:10:53.314Z,95883.28
2018-05-18T11:13:21.606Z,95880.39
2018-05-18T11:15:50.657Z,95875.30
2018-05-18T11:18:19.235Z,95871.80
2018-05-18T11:20:47.532Z,95872.73
2018-05-18T11:23:15.872Z,95868.81
2018-05-18T11:25:44.158Z,95869.47
2018-05-18T11:28:12.592Z,95862.19
2018-05-18T11:30:41.626Z,95856.47
2018-05-18T11:33:10.745Z,95862.42
2018-05-18T11:35:39.711Z,95851.93
2018-05-18T11:38:08.255Z,95856.65
2018-05-18T11:40:38.061Z,95854.59
2018-05-18T11:43:06.344Z,95850.56
2018-05-18T11:45:36.140Z,95849.75
2018-05-18T11:48:04.452Z,95846.31
2018-05-18T11:50:32.700Z,95837.98
2018-05-18T11:53:01.739Z,95835.26
2018-05-18T11:55:30.781Z,95835.66
2018-05-18T11:57:59.076Z,95829.60
2018-05-18T12:00:28.861Z,95835.12
2018-05-18T12:02:57.188Z,95830.70
2018-05-18T12:05:31.207Z,95834.81
2018-05-18T12:08:00.253Z,95826.38
2018-05-18T12:10:28.543Z,95836.91
2018-05-18T12:12:57.614Z,95830.31
2018-05-18T12:15:26.158Z,95828.41
2018-05-18T12:17:54.435Z,95828.01
2018-05-18T12:20:22.727Z,95825.39
2018-05-18T12:22:51.034Z,95824.77
2018-05-18T12:25:20.104Z,95820.81
2018-05-18T12:27:48.389Z,95819.77
2018-05-18T12:30:16.685Z,95813.02
2018-05-18T12:32:45.058Z,95816.61
2018-05-18T12:35:13.349Z,95818.41
2018-05-18T12:37:41.640Z,95819.50
2018-05-18T12:40:11.408Z,95819.25
2018-05-18T12:42:39.686Z,95817.88
2018-05-18T12:45:07.990Z,95812.70
2018-05-18T12:47:37.027Z,95807.48
2018-05-18T12:50:05.305Z,95803.48
2018-05-18T12:52:33.602Z,95807.57
2018-05-18T12:55:01.907Z,95802.21
2018-05-18T12:57:30.196Z,95802.09
2018-05-18T12:59:58.469Z,95799.29
2018-05-18T13:02:27.519Z,95791.27
2018-05-18T13:04:56.141Z,95789.34
2018-05-18T13:07:24.425Z,95791.03
2018-05-18T13:09:53.467Z,95789.42
2018-05-18T13:12:21.787Z,95793.03
2018-05-18T13:14:51.484Z,95784.86
2018-05-18T13:17:19.784Z,95786.77
2018-05-18T13:19:48.825Z,95785.16
2018-05-18T13:22:17.270Z,95780.95
2018-05-18T13:24:47.059Z,95775.56
2018-05-18T13:27:15.336Z,95769.88
2018-05-18T13:29:45.148Z,95779.02
2018-05-18T13:32:14.944Z,95766.41
2018-05-18T13:34:43.237Z,95767.30
2018-05-18T13:37:13.049Z,95768.77
2018-05-18T13:39:41.333Z,95765.50
2018-05-18T13:42:10.371Z,95769.81
2018-05-18T13:44:38.656Z,95756.97
2018-05-18T13:47:07.086Z,95758.17
2018-05-18T13:49:35.359Z,95750.28
2018-05-18T13:52:04.391Z,95745.58
2018-05-18T13:54:32.671Z,95744.52
2018-05-18T13:57:00.959Z,95748.05
2018-05-18T13:59:29.273Z,95742.94
2018-05-18T14:01:57.551Z,95744.70
2018-05-18T14:04:27.354Z,95738.28
2018-05-18T14:06:55.681Z,95740.22
2018-05-18T14:09:24.745Z,95745.48
2018-05-18T14:11:53.017Z,95736.68
2018-05-18T14:14:21.293Z,95734.83
2018-05-18T14:16:51.525Z,95741.37
2018-05-18T14:19:19.793Z,95740.20
2018-05-18T14:21:48.828Z,95737.06
2018-05-18T14:24:17.131Z,95742.33
2018-05-18T14:26:45.431Z,95739.23
2018-05-18T14:29:13.718Z,95734.49
2018-05-18T14:31:42.081Z,95738.03
2018-05-18T14:34:11.781Z,95732.42
2018-05-18T14:36:40.064Z,95739.22
2018-05-18T14:39:08.378Z,95728.09
2018-05-18T14:41:37.421Z,95729.06
2018-05-18T14:44:05.712Z,95728.83
2018-05-18T14:46:34.248Z,95726.70
2018-05-18T14:49:02.527Z,95727.48
2018-05-18T14:51:30.804Z,95731.63
2018-05-18T14:53:59.107Z,95724.20
2018-05-18T14:56:27.399Z,95724.14
2018-05-18T14:58:56.478Z,95717.75
2018-05-18T15:01:24.785Z,95720.58
2018-05-18T15:03:53.150Z,95712.05
2018-05-18T15:06:21.443Z,95716.51
2018-05-18T15:08:50.539Z,95717.36
2018-05-18T15:11:18.790Z,95716.81
2018-05-18T15:13:47.093Z,95712.06
2018-05-18T15:16:15.384Z,95719.04
2018-05-18T15:18:44.437Z,95711.95
2018-05-18T15:21:12.713Z,95707.30
2018-05-18T15:23:41.099Z,95714.51
2018-05-18T15:26:09.605Z,95712.30
2018-05-18T15:28:39.409Z,95712.08
2018-05-18T15:31:09.222Z,95706.16
2018-05-18T15:33:38.272Z,95701.34
2018-05-18T15:36:06.546Z,95698.44
2018-05-18T15:38:34.835Z,95705.47
2018-05-18T15:41:03.137Z,95695.55
2018-05-18T15:43:31.422Z,95702.84
2018-05-18T15:46:00.469Z,95701.34
2018-05-18T15:48:28.788Z,95708.30
2018-05-18T15:50:57.835Z,95701.20
2018-05-18T15:53:26.111Z,95703.68
2018-05-18T15:55:54.432Z,95707.75
2018-05-18T15:58:22.708Z,95709.07
2018-05-18T16:00:51.065Z,95696.87
2018-05-18T16:03:19.379Z,95699.75
2018-05-18T16:05:48.433Z,95701.09
2018-05-18T16:08:16.763Z,95698.27
2018-05-18T16:10:45.914Z,95705.20
2018-05-18T16:13:14.217Z,95705.23
2018-05-18T16:15:43.278Z,95707.69
2018-05-18T16:18:11.526Z,95704.42
2018-05-18T16:20:40.577Z,95709.25
2018-05-18T16:23:09.007Z,95705.60
2018-05-18T16:25:37.756Z,95711.78
2018-05-18T16:28:06.863Z,95703.77
2018-05-18T16:30:35.091Z,95706.80
2018-05-18T16:33:03.379Z,95711.46
2018-05-18T16:35:31.656Z,95705.28
2018-05-18T16:37:59.965Z,95710.56
2018-05-18T16:40:29.329Z,95713.51
2018-05-18T16:42:57.626Z,95712.70
2018-05-18T16:45:26.653Z,95721.64
2018-05-18T16:47:54.952Z,95712.88
2018-05-18T16:50:23.255Z,95719.30
2018-05-18T16:52:51.547Z,95716.41
2018-05-18T16:55:19.787Z,95716.41
2018-05-18T16:57:48.044Z,95715.69
2018-05-18T17:00:16.582Z,95717.67
2018-05-18T17:02:45.583Z,95719.92
2018-05-18T17:05:15.371Z,95725.94
2018-05-18T17:07:43.646Z,95724.22
2018-05-18T17:10:11.904Z,95728.10
2018-05-18T17:12:40.190Z,95729.05
2018-05-18T17:15:08.468Z,95730.27
2018-05-18T17:17:36.760Z,95726.06
2018-05-18T17:20:05.043Z,95729.03
2018-05-18T17:22:33.516Z,95729.75
2018-05-18T17:25:01.794Z,95725.47
2018-05-18T17:27:30.065Z,95726.77
2018-05-18T17:29:58.346Z,95727.72
2018-05-18T17:32:26.646Z,95724.91
2018-05-18T17:34:55.692Z,95730.37
2018-05-18T17:37:23.942Z,95722.56
2018-05-18T17:39:52.198Z,95731.77
2018-05-18T17:42:21.308Z,95725.59
2018-05-18T17:44:50.305Z,95731.52
2018-05-18T17:47:18.581Z,95735.75
2018-05-18T17:49:46.866Z,95730.05
2018-05-18T17:52:15.148Z,95729.23
2018-05-18T17:54:43.761Z,95737.83
2018-05-18T17:57:12.055Z,95731.93
2018-05-18T17:59:40.330Z,95732.72
2018-05-18T18:02:08.615Z,95737.45
2018-05-18T18:04:37.646Z,95729.69
2018-05-18T18:07:06.084Z,95731.41
2018-05-18T18:09:34.354Z,95735.13
2018-05-18T18:12:02.643Z,95738.30
2018-05-18T18:14:31.687Z,95735.30
2018-05-18T18:16:59.929Z,95737.70
2018-05-18T18:19:28.219Z,95738.61
2018-05-18T18:21:56.497Z,95740.41
2018-05-18T18:24:24.783Z,95746.75
2018-05-18T18:26:53.021Z,95748.27
2018-05-18T18:29:22.289Z,95742.39
2018-05-18T18:31:50.546Z,95745.91
2018-05-18T18:34:18.834Z,95746.71
2018-05-18T18:36:47.144Z,95751.00
2018-05-18T18:39:16.906Z,95757.92
2018-05-18T18:41:45.423Z,95756.77
2018-05-18T18:44:13.774Z,95757.61
2018-05-18T18:46:42.043Z,95762.13
2018-05-18T18:49:10.645Z,95761.48
2018-05-18T18:51:38.933Z,95764.21
2018-05-18T18:54:08.740Z,95763.94
2018-05-18T18:56:37.039Z,95767.75
2018-05-18T18:59:06.834Z,95769.43
2018-05-18T19:01:36.593Z,95769.08
2018-05-18T19:04:04.879Z,95771.77
2018-05-18T19:06:33.196Z,95771.57
2018-05-18T19:09:02.240Z,95774.48
2018-05-18T19:11:30.539Z,95780.75
2018-05-18T19:13:58.846Z,95776.75
2018-05-18T19:16:27.887Z,95776.13
2018-05-18T19:18:56.209Z,95781.00
2018-05-18T19:21:24.503Z,95784.19
2018-05-18T19:23:53.582Z,95779.76
2018-05-18T19:26:21.873Z,95780.89
2018-05-18T19:28:51.685Z,95784.45
2018-05-18T19:31:21.617Z,95786.37
2018-05-18T19:33:50.634Z,95783.88
2018-05-18T19:36:18.909Z,95791.46
2018-05-18T19:38:47.186Z,95791.48
2018-05-18T19:41:15.464Z,95785.33
2018-05-18T19:43:43.777Z,95792.50
2018-05-18T19:46:12.053Z,95793.56
2018-05-18T19:48:41.892Z,95800.91
2018-05-18T19:51:11.089Z,95800.73
2018-05-18T19:53:40.119Z,95802.25
2018-05-18T19:56:08.399Z,95800.76
2018-05-18T19:58:36.701Z,95799.28
2018-05-18T20:01:04.977Z,95800.41
2018-05-18T20:03:33.314Z,95802.44
2018-05-18T20:06:03.077Z,95805.02
2018-05-18T20:08:32.130Z,95803.98
2018-05-18T20:11:00.564Z,95802.81
2018-05-18T20:13:29.599Z,95806.19
2018-05-18T20:15:57.886Z,95807.42
2018-05-18T20:18:26.157Z,95805.02
2018-05-18T20:20:54.433Z,95807.33
2018-05-18T20:23:22.722Z,95807.23
2018-05-18T20:25:51.002Z,95808.75
2018-05-18T20:28:19.301Z,95811.45
2018-05-18T20:30:47.584Z,95813.52
2018-05-18T20:33:15.877Z,95814.06
2018-05-18T20:35:45.078Z,95815.30
2018-05-18T20:38:14.140Z,95815.73
2018-05-18T20:40:42.438Z,95820.20
2018-05-18T20:43:10.724Z,95821.70
2018-05-18T20:45:40.503Z,95824.02
2018-05-18T20:48:08.804Z,95825.65
2018-05-18T20:50:37.853Z,95819.03
2018-05-18T20:53:06.145Z,95830.64
2018-05-18T20:55:34.749Z,95825.00
2018-05-18T20:58:03.052Z,95831.63
2018-05-18T21:00:31.336Z,95827.88
2018-05-18T21:03:01.130Z,95832.59
2018-05-18T21:05:30.202Z,95831.81
2018-05-18T21:07:58.810Z,95835.17
2018-05-18T21:10:27.086Z,95833.98
2018-05-18T21:12:55.361Z,95842.32
2018-05-18T21:15:24.436Z,95837.51
2018-05-18T21:17:52.728Z,95839.27
2018-05-18T21:20:21.829Z,95843.19
2018-05-18T21:22:50.883Z,95847.36
2018-05-18T21:25:19.200Z,95848.84
2018-05-18T21:27:48.234Z,95851.95
2018-05-18T21:30:16.542Z,95847.78
2018-05-18T21:32:44.847Z,95843.34
2018-05-18T21:35:13.136Z,95842.41
2018-05-18T21:37:42.166Z,95851.83
2018-05-18T21:40:10.454Z,95855.63
2018-05-18T21:42:38.740Z,95856.69
2018-05-18T21:45:07.043Z,95857.22
2018-05-18T21:47:36.079Z,95856.33
2018-05-18T21:50:04.681Z,95859.68
2018-05-18T21:52:32.999Z,95860.21
2018-05-18T21:55:01.283Z,95859.68
2018-05-18T21:57:29.555Z,95855.77
2018-05-18T21:59:58.591Z,95849.36
2018-05-18T22:02:26.869Z,95853.78
2018-05-18T22:04:55.151Z,95850.55
2018-05-18T22:07:23.437Z,95857.98
2018-05-18T22:09:51.722Z,95855.86
2018-05-18T22:12:20.014Z,95856.53
2018-05-18T22:14:48.614Z,95852.65
2018-05-18T22:17:16.890Z,95860.45
2018-05-18T22:19:46.687Z,95858.17
2018-05-18T22:22:14.983Z,95853.06
2018-05-18T22:24:43.256Z,95858.34
2018-05-18T22:27:11.714Z,95863.06
2018-05-18T22:29:40.017Z,95861.72
2018-05-18T22:32:09.819Z,95860.13
2018-05-18T22:34:40.015Z,95861.35
2018-05-18T22:37:08.313Z,95859.48
2018-05-18T22:39:36.601Z,95854.91
2018-05-18T22:42:06.389Z,95866.61
2018-05-18T22:44:34.687Z,95858.95
2018-05-18T22:47:03.741Z,95874.31
2018-05-18T22:49:32.034Z,95878.59
2018-05-18T22:52:00.327Z,95878.59
2018-05-18T22:54:29.388Z,95871.75
2018-05-18T22:56:57.681Z,95871.72
2018-05-18T22:59:25.983Z,95867.68
2018-05-18T23:01:54.240Z,95865.67
2018-05-18T23:04:22.534Z,95864.45
2018-05-18T23:06:52.338Z,95855.85
2018-05-18T23:09:21.383Z,95857.77
2018-05-18T23:11:49.710Z,95852.38
2018-05-18T23:14:19.512Z,95850.62
2018-05-18T23:16:47.790Z,95854.13
2018-05-18T23:19:16.083Z,95845.93
2018-05-18T23:21:45.145Z,95849.46
2018-05-18T23:24:13.452Z,95851.75
2018-05-18T23:26:41.732Z,95852.96
2018-05-18T23:29:10.794Z,95854.68
2018-05-18T23:31:39.093Z,95850.92
2018-05-18T23:34:07.566Z,95843.94
2018-05-18T23:36:35.850Z,95844.34
2018-05-18T23:39:04.127Z,95843.69
2018-05-18T23:41:32.411Z,95840.74
2018-05-18T23:44:02.407Z,95834.15
2018-05-18T23:46:30.696Z,95831.19
2018-05-18T23:48:59.775Z,95825.27
2018-05-18T23:51:28.077Z,95821.64
2018-05-18T23:53:58.056Z,95815.34
2018-05-18T23:56:27.793Z,95813.59
2018-05-18T23:58:56.079Z,95811.45
